sensor_id;sensor_type;location;lat;lon;timestamp;pressure;altitude;pressure_sealevel;temperature;humidity
78932;BME280;68331;53.362;55.932;2023-08-06T00:00:26;99860.38;;;19.89;65.13
78932;BME280;68331;53.362;55.932;2023-08-06T00:02:53;99859.84;;;19.84;65.34
78932;BME280;68331;53.362;55.932;2023-08-06T00:05:19;99850.94;;;19.83;65.18
78932;BME280;68331;53.362;55.932;2023-08-06T00:07:48;99851.91;;;19.82;65.42
78932;BME280;68331;53.362;55.932;2023-08-06T00:10:14;99866.38;;;19.80;65.74
78932;BME280;68331;53.362;55.932;2023-08-06T00:12:40;99860.38;;;19.76;65.71
78932;BME280;68331;53.362;55.932;2023-08-06T00:15:07;99868.50;;;19.74;65.65
78932;BME280;68331;53.362;55.932;2023-08-06T00:17:34;99865.81;;;19.74;65.82
78932;BME280;68331;53.362;55.932;2023-08-06T00:20:01;99868.63;;;19.73;66.15
78932;BME280;68331;53.362;55.932;2023-08-06T00:22:37;99871.59;;;19.68;66.26
78932;BME280;68331;53.362;55.932;2023-08-06T00:25:04;99871.94;;;19.64;66.43
78932;BME280;68331;53.362;55.932;2023-08-06T00:27:33;99867.59;;;19.61;66.53
78932;BME280;68331;53.362;55.932;2023-08-06T00:29:59;99875.31;;;19.53;66.92
78932;BME280;68331;53.362;55.932;2023-08-06T00:32:25;99862.78;;;19.54;67.07
78932;BME280;68331;53.362;55.932;2023-08-06T00:34:52;99857.53;;;19.52;67.11
78932;BME280;68331;53.362;55.932;2023-08-06T00:37:19;99867.81;;;19.45;67.14
78932;BME280;68331;53.362;55.932;2023-08-06T00:39:45;99867.38;;;19.39;67.75
78932;BME280;68331;53.362;55.932;2023-08-06T00:42:12;99863.06;;;19.36;67.82
78932;BME280;68331;53.362;55.932;2023-08-06T00:44:39;99870.25;;;19.36;67.81
78932;BME280;68331;53.362;55.932;2023-08-06T00:47:08;99870.25;;;19.36;67.80
78932;BME280;68331;53.362;55.932;2023-08-06T00:49:36;99873.69;;;19.38;67.56
78932;BME280;68331;53.362;55.932;2023-08-06T00:52:04;99869.63;;;19.45;66.96
78932;BME280;68331;53.362;55.932;2023-08-06T00:54:31;99864.81;;;19.50;66.46
78932;BME280;68331;53.362;55.932;2023-08-06T00:56:58;99849.19;;;19.44;66.32
78932;BME280;68331;53.362;55.932;2023-08-06T00:59:25;99862.88;;;19.52;65.94
78932;BME280;68331;53.362;55.932;2023-08-06T01:01:51;99866.31;;;19.54;65.99
78932;BME280;68331;53.362;55.932;2023-08-06T01:04:18;99857.31;;;19.55;65.92
78932;BME280;68331;53.362;55.932;2023-08-06T01:07:15;99859.69;;;19.60;65.74
78932;BME280;68331;53.362;55.932;2023-08-06T01:12:51;99860.88;;;19.68;65.27
78932;BME280;68331;53.362;55.932;2023-08-06T01:15:25;99860.25;;;19.78;65.03
78932;BME280;68331;53.362;55.932;2023-08-06T01:17:54;99850.94;;;19.83;64.99
78932;BME280;68331;53.362;55.932;2023-08-06T01:20:20;99851.50;;;19.88;64.61
78932;BME280;68331;53.362;55.932;2023-08-06T01:22:46;99844.81;;;19.94;64.82
78932;BME280;68331;53.362;55.932;2023-08-06T01:25:15;99856.06;;;19.99;64.36
78932;BME280;68331;53.362;55.932;2023-08-06T01:27:49;99855.66;;;20.05;64.37
78932;BME280;68331;53.362;55.932;2023-08-06T01:30:23;99853.28;;;20.13;64.09
78932;BME280;68331;53.362;55.932;2023-08-06T01:32:53;99843.53;;;20.12;63.84
78932;BME280;68331;53.362;55.932;2023-08-06T01:35:28;99860.63;;;20.23;64.02
78932;BME280;68331;53.362;55.932;2023-08-06T01:37:59;99860.53;;;20.24;63.77
78932;BME280;68331;53.362;55.932;2023-08-06T01:40:25;99862.88;;;20.29;63.56
78932;BME280;68331;53.362;55.932;2023-08-06T01:42:54;99862.56;;;20.33;63.58
78932;BME280;68331;53.362;55.932;2023-08-06T01:45:20;99858.81;;;20.36;63.43
78932;BME280;68331;53.362;55.932;2023-08-06T01:47:46;99859.31;;;20.41;63.33
78932;BME280;68331;53.362;55.932;2023-08-06T01:50:12;99848.50;;;20.42;63.42
78932;BME280;68331;53.362;55.932;2023-08-06T01:52:38;99853.25;;;20.39;63.47
78932;BME280;68331;53.362;55.932;2023-08-06T01:55:04;99850.56;;;20.39;63.31
78932;BME280;68331;53.362;55.932;2023-08-06T01:57:31;99849.00;;;20.48;63.21
78932;BME280;68331;53.362;55.932;2023-08-06T01:59:58;99851.69;;;20.60;62.97
78932;BME280;68331;53.362;55.932;2023-08-06T02:02:24;99859.59;;;20.75;62.52
78932;BME280;68331;53.362;55.932;2023-08-06T02:04:50;99854.50;;;20.83;62.61
78932;BME280;68331;53.362;55.932;2023-08-06T02:07:16;99860.25;;;20.89;62.19
78932;BME280;68331;53.362;55.932;2023-08-06T02:09:42;99862.94;;;20.89;61.99
78932;BME280;68331;53.362;55.932;2023-08-06T02:12:08;99864.91;;;20.87;62.52
78932;BME280;68331;53.362;55.932;2023-08-06T02:14:34;99861.13;;;20.90;62.33
78932;BME280;68331;53.362;55.932;2023-08-06T02:17:01;99860.53;;;20.98;62.12
78932;BME280;68331;53.362;55.932;2023-08-06T02:19:27;99856.78;;;21.00;62.18
78932;BME280;68331;53.362;55.932;2023-08-06T02:21:53;99864.00;;;21.11;62.16
78932;BME280;68331;53.362;55.932;2023-08-06T02:24:19;99863.94;;;21.24;61.49
78932;BME280;68331;53.362;55.932;2023-08-06T02:26:44;99862.81;;;21.39;60.72
78932;BME280;68331;53.362;55.932;2023-08-06T02:29:12;99858.25;;;21.64;60.28
78932;BME280;68331;53.362;55.932;2023-08-06T02:31:38;99853.13;;;21.72;59.75
78932;BME280;68331;53.362;55.932;2023-08-06T02:34:05;99862.63;;;21.76;60.02
78932;BME280;68331;53.362;55.932;2023-08-06T02:36:31;99865.44;;;21.86;59.98
78932;BME280;68331;53.362;55.932;2023-08-06T02:38:59;99853.16;;;22.05;59.52
78932;BME280;68331;53.362;55.932;2023-08-06T02:41:25;99849.75;;;22.15;58.99
78932;BME280;68331;53.362;55.932;2023-08-06T02:43:52;99860.59;;;22.13;59.21
78932;BME280;68331;53.362;55.932;2023-08-06T02:46:18;99866.59;;;22.05;59.52
78932;BME280;68331;53.362;55.932;2023-08-06T02:48:44;99866.69;;;22.04;59.70
78932;BME280;68331;53.362;55.932;2023-08-06T02:51:12;99865.00;;;22.03;59.44
78932;BME280;68331;53.362;55.932;2023-08-06T02:53:37;99872.69;;;22.08;59.55
78932;BME280;68331;53.362;55.932;2023-08-06T02:56:07;99869.88;;;22.09;59.61
78932;BME280;68331;53.362;55.932;2023-08-06T02:58:45;99871.34;;;22.13;59.39
78932;BME280;68331;53.362;55.932;2023-08-06T03:01:24;99872.59;;;22.20;59.02
78932;BME280;68331;53.362;55.932;2023-08-06T03:03:57;99868.47;;;22.27;59.15
78932;BME280;68331;53.362;55.932;2023-08-06T03:06:29;99861.47;;;22.36;58.81
78932;BME280;68331;53.362;55.932;2023-08-06T03:08:57;99867.84;;;22.46;58.54
78932;BME280;68331;53.362;55.932;2023-08-06T03:11:24;99861.81;;;22.54;58.07
78932;BME280;68331;53.362;55.932;2023-08-06T03:13:54;99863.91;;;22.50;58.41
78932;BME280;68331;53.362;55.932;2023-08-06T03:16:20;99863.41;;;22.45;58.35
78932;BME280;68331;53.362;55.932;2023-08-06T03:18:46;99861.06;;;22.63;58.00
78932;BME280;68331;53.362;55.932;2023-08-06T03:21:13;99857.81;;;22.92;57.29
78932;BME280;68331;53.362;55.932;2023-08-06T03:23:39;99857.88;;;23.13;56.63
78932;BME280;68331;53.362;55.932;2023-08-06T03:26:05;99858.09;;;23.21;56.26
78932;BME280;68331;53.362;55.932;2023-08-06T03:28:32;99858.56;;;23.26;56.34
78932;BME280;68331;53.362;55.932;2023-08-06T03:30:59;99849.00;;;23.33;55.77
78932;BME280;68331;53.362;55.932;2023-08-06T03:33:26;99853.84;;;23.39;55.97
78932;BME280;68331;53.362;55.932;2023-08-06T03:35:52;99852.53;;;23.34;55.85
78932;BME280;68331;53.362;55.932;2023-08-06T03:38:19;99845.75;;;23.60;55.47
78932;BME280;68331;53.362;55.932;2023-08-06T03:40:48;99847.44;;;23.73;54.99
78932;BME280;68331;53.362;55.932;2023-08-06T03:43:15;99845.91;;;23.80;54.62
78932;BME280;68331;53.362;55.932;2023-08-06T03:45:41;99838.13;;;23.86;54.86
78932;BME280;68331;53.362;55.932;2023-08-06T03:48:08;99841.66;;;23.77;55.05
78932;BME280;68331;53.362;55.932;2023-08-06T03:50:35;99838.28;;;23.85;55.17
78932;BME280;68331;53.362;55.932;2023-08-06T03:53:01;99827.56;;;23.95;54.63
78932;BME280;68331;53.362;55.932;2023-08-06T03:55:28;99832.41;;;24.01;54.23
78932;BME280;68331;53.362;55.932;2023-08-06T03:57:54;99835.41;;;24.07;54.01
78932;BME280;68331;53.362;55.932;2023-08-06T04:00:20;99829.78;;;24.20;53.95
78932;BME280;68331;53.362;55.932;2023-08-06T04:02:52;99833.47;;;24.69;53.23
78932;BME280;68331;53.362;55.932;2023-08-06T04:05:18;99821.72;;;24.90;52.49
78932;BME280;68331;53.362;55.932;2023-08-06T04:07:44;99829.66;;;24.91;53.02
78932;BME280;68331;53.362;55.932;2023-08-06T04:10:10;99818.31;;;24.97;52.63
78932;BME280;68331;53.362;55.932;2023-08-06T04:12:36;99818.31;;;25.26;52.22
78932;BME280;68331;53.362;55.932;2023-08-06T04:15:05;99822.25;;;25.61;51.83
78932;BME280;68331;53.362;55.932;2023-08-06T04:17:33;99810.16;;;26.12;50.81
78932;BME280;68331;53.362;55.932;2023-08-06T04:19:59;99815.13;;;27.26;48.67
78932;BME280;68331;53.362;55.932;2023-08-06T04:22:26;99808.41;;;28.59;46.21
78932;BME280;68331;53.362;55.932;2023-08-06T04:24:52;99810.34;;;28.83;45.07
78932;BME280;68331;53.362;55.932;2023-08-06T04:27:19;99813.00;;;28.58;45.28
78932;BME280;68331;53.362;55.932;2023-08-06T04:29:46;99811.31;;;28.23;46.25
78932;BME280;68331;53.362;55.932;2023-08-06T04:32:12;99810.56;;;27.52;48.26
78932;BME280;68331;53.362;55.932;2023-08-06T04:34:43;99817.44;;;27.21;49.04
78932;BME280;68331;53.362;55.932;2023-08-06T04:37:09;99819.44;;;27.01;49.53
78932;BME280;68331;53.362;55.932;2023-08-06T04:39:36;99815.44;;;26.87;50.61
78932;BME280;68331;53.362;55.932;2023-08-06T04:42:02;99816.34;;;26.78;50.38
78932;BME280;68331;53.362;55.932;2023-08-06T04:44:29;99826.22;;;26.69;51.40
78932;BME280;68331;53.362;55.932;2023-08-06T04:46:54;99825.63;;;26.75;51.07
78932;BME280;68331;53.362;55.932;2023-08-06T04:49:21;99831.56;;;26.79;51.07
78932;BME280;68331;53.362;55.932;2023-08-06T04:51:47;99830.88;;;26.95;50.82
78932;BME280;68331;53.362;55.932;2023-08-06T04:54:13;99823.06;;;27.27;50.09
78932;BME280;68331;53.362;55.932;2023-08-06T04:56:39;99823.09;;;27.53;49.69
78932;BME280;68331;53.362;55.932;2023-08-06T04:59:04;99821.38;;;27.96;48.79
78932;BME280;68331;53.362;55.932;2023-08-06T05:01:31;99820.41;;;28.40;47.62
78932;BME280;68331;53.362;55.932;2023-08-06T05:03:58;99821.50;;;28.63;47.55
78932;BME280;68331;53.362;55.932;2023-08-06T05:06:24;99810.28;;;28.50;47.36
78932;BME280;68331;53.362;55.932;2023-08-06T05:08:49;99812.28;;;28.48;47.59
78932;BME280;68331;53.362;55.932;2023-08-06T05:11:16;99815.59;;;28.84;46.69
78932;BME280;68331;53.362;55.932;2023-08-06T05:13:41;99819.75;;;29.05;46.63
78932;BME280;68331;53.362;55.932;2023-08-06T05:16:08;99815.78;;;28.99;47.01
78932;BME280;68331;53.362;55.932;2023-08-06T05:18:34;99812.22;;;28.82;47.21
78932;BME280;68331;53.362;55.932;2023-08-06T05:21:00;99812.38;;;28.89;47.56
78932;BME280;68331;53.362;55.932;2023-08-06T05:23:27;99812.22;;;28.98;47.22
78932;BME280;68331;53.362;55.932;2023-08-06T05:25:53;99814.25;;;28.96;47.27
78932;BME280;68331;53.362;55.932;2023-08-06T05:28:19;99818.69;;;28.97;47.35
78932;BME280;68331;53.362;55.932;2023-08-06T05:30:45;99810.25;;;29.01;47.88
78932;BME280;68331;53.362;55.932;2023-08-06T05:33:11;99809.34;;;29.00;47.84
78932;BME280;68331;53.362;55.932;2023-08-06T05:35:36;99802.09;;;29.01;47.80
78932;BME280;68331;53.362;55.932;2023-08-06T05:38:02;99793.78;;;29.10;48.17
78932;BME280;68331;53.362;55.932;2023-08-06T05:40:28;99792.06;;;29.34;47.59
78932;BME280;68331;53.362;55.932;2023-08-06T05:42:54;99784.00;;;29.73;46.76
78932;BME280;68331;53.362;55.932;2023-08-06T05:45:21;99784.28;;;30.03;45.96
78932;BME280;68331;53.362;55.932;2023-08-06T05:47:50;99778.66;;;31.21;43.68
78932;BME280;68331;53.362;55.932;2023-08-06T05:50:16;99759.84;;;34.69;36.23
78932;BME280;68331;53.362;55.932;2023-08-06T05:52:42;99768.56;;;37.33;31.90
78932;BME280;68331;53.362;55.932;2023-08-06T05:55:08;99759.81;;;38.71;29.12
78932;BME280;68331;53.362;55.932;2023-08-06T05:57:34;99751.84;;;40.22;26.51
78932;BME280;68331;53.362;55.932;2023-08-06T06:00:01;99746.25;;;41.59;24.67
78932;BME280;68331;53.362;55.932;2023-08-06T06:02:39;99738.13;;;42.35;24.03
78932;BME280;68331;53.362;55.932;2023-08-06T06:05:05;99740.84;;;43.11;22.51
78932;BME280;68331;53.362;55.932;2023-08-06T06:07:31;99735.78;;;42.05;23.23
78932;BME280;68331;53.362;55.932;2023-08-06T06:09:57;99726.78;;;42.64;22.19
78932;BME280;68331;53.362;55.932;2023-08-06T06:12:23;99722.53;;;43.15;22.19
78932;BME280;68331;53.362;55.932;2023-08-06T06:14:51;99724.06;;;40.75;24.35
78932;BME280;68331;53.362;55.932;2023-08-06T06:17:17;99724.25;;;39.05;27.09
78932;BME280;68331;53.362;55.932;2023-08-06T06:19:43;99725.97;;;36.53;30.15
78932;BME280;68331;53.362;55.932;2023-08-06T06:22:09;99730.31;;;34.03;33.89
78932;BME280;68331;53.362;55.932;2023-08-06T06:24:35;99732.09;;;32.41;36.23
78932;BME280;68331;53.362;55.932;2023-08-06T06:27:00;99725.50;;;31.69;37.76
78932;BME280;68331;53.362;55.932;2023-08-06T06:29:26;99735.41;;;31.33;38.28
78932;BME280;68331;53.362;55.932;2023-08-06T06:31:52;99726.78;;;30.91;39.56
78932;BME280;68331;53.362;55.932;2023-08-06T06:34:18;99742.50;;;30.58;40.07
78932;BME280;68331;53.362;55.932;2023-08-06T06:36:45;99734.81;;;30.39;41.04
78932;BME280;68331;53.362;55.932;2023-08-06T06:39:10;99737.41;;;30.32;41.76
78932;BME280;68331;53.362;55.932;2023-08-06T06:41:36;99751.41;;;30.12;41.93
78932;BME280;68331;53.362;55.932;2023-08-06T06:44:10;99746.63;;;30.15;41.58
78932;BME280;68331;53.362;55.932;2023-08-06T06:46:36;99739.25;;;29.92;42.42
78932;BME280;68331;53.362;55.932;2023-08-06T06:49:02;99740.69;;;30.11;42.06
78932;BME280;68331;53.362;55.932;2023-08-06T06:51:28;99740.94;;;30.64;40.91
78932;BME280;68331;53.362;55.932;2023-08-06T06:53:54;99733.88;;;30.23;42.29
78932;BME280;68331;53.362;55.932;2023-08-06T06:56:20;99735.28;;;29.55;43.63
78932;BME280;68331;53.362;55.932;2023-08-06T06:58:46;99749.28;;;29.11;44.65
78932;BME280;68331;53.362;55.932;2023-08-06T07:01:12;99756.03;;;28.91;45.03
78932;BME280;68331;53.362;55.932;2023-08-06T07:03:38;99739.94;;;29.06;45.03
78932;BME280;68331;53.362;55.932;2023-08-06T07:06:04;99735.78;;;30.92;41.18
78932;BME280;68331;53.362;55.932;2023-08-06T07:08:30;99720.59;;;32.09;38.57
78932;BME280;68331;53.362;55.932;2023-08-06T07:11:01;99718.88;;;32.23;38.47
78932;BME280;68331;53.362;55.932;2023-08-06T07:13:27;99713.22;;;32.25;38.08
78932;BME280;68331;53.362;55.932;2023-08-06T07:15:54;99726.06;;;32.09;38.43
78932;BME280;68331;53.362;55.932;2023-08-06T07:18:21;99712.69;;;32.14;36.99
78932;BME280;68331;53.362;55.932;2023-08-06T07:20:50;99719.66;;;31.58;37.48
78932;BME280;68331;53.362;55.932;2023-08-06T07:23:17;99710.72;;;30.96;38.61
78932;BME280;68331;53.362;55.932;2023-08-06T07:25:43;99729.84;;;30.65;38.87
78932;BME280;68331;53.362;55.932;2023-08-06T07:28:10;99723.78;;;30.55;38.40
78932;BME280;68331;53.362;55.932;2023-08-06T07:30:39;99728.53;;;30.61;38.82
78932;BME280;68331;53.362;55.932;2023-08-06T07:33:05;99727.88;;;30.82;38.51
78932;BME280;68331;53.362;55.932;2023-08-06T07:35:32;99726.81;;;31.06;38.38
78932;BME280;68331;53.362;55.932;2023-08-06T07:37:58;99715.84;;;31.29;38.30
78932;BME280;68331;53.362;55.932;2023-08-06T07:40:23;99707.53;;;31.45;37.50
78932;BME280;68331;53.362;55.932;2023-08-06T07:42:50;99699.94;;;31.41;35.92
78932;BME280;68331;53.362;55.932;2023-08-06T07:45:16;99706.44;;;31.17;36.03
78932;BME280;68331;53.362;55.932;2023-08-06T07:47:42;99701.03;;;30.94;34.86
78932;BME280;68331;53.362;55.932;2023-08-06T07:50:09;99707.16;;;30.96;34.54
78932;BME280;68331;53.362;55.932;2023-08-06T07:52:35;99694.97;;;31.07;33.97
78932;BME280;68331;53.362;55.932;2023-08-06T07:55:01;99686.34;;;31.33;33.65
78932;BME280;68331;53.362;55.932;2023-08-06T07:57:32;99685.34;;;31.48;31.45
78932;BME280;68331;53.362;55.932;2023-08-06T07:59:59;99682.63;;;31.63;31.00
78932;BME280;68331;53.362;55.932;2023-08-06T08:02:26;99688.53;;;31.82;30.98
78932;BME280;68331;53.362;55.932;2023-08-06T08:04:52;99683.75;;;31.69;29.99
78932;BME280;68331;53.362;55.932;2023-08-06T08:07:18;99673.03;;;31.53;29.65
78932;BME280;68331;53.362;55.932;2023-08-06T08:09:44;99667.00;;;31.57;30.01
78932;BME280;68331;53.362;55.932;2023-08-06T08:12:11;99665.94;;;31.28;29.76
78932;BME280;68331;53.362;55.932;2023-08-06T08:14:37;99681.28;;;30.92;30.70
78932;BME280;68331;53.362;55.932;2023-08-06T08:17:04;99671.03;;;30.79;30.47
78932;BME280;68331;53.362;55.932;2023-08-06T08:19:31;99658.91;;;30.81;30.75
78932;BME280;68331;53.362;55.932;2023-08-06T08:21:58;99659.81;;;30.97;30.19
78932;BME280;68331;53.362;55.932;2023-08-06T08:24:24;99646.09;;;31.05;30.35
78932;BME280;68331;53.362;55.932;2023-08-06T08:26:53;99649.66;;;31.20;30.51
78932;BME280;68331;53.362;55.932;2023-08-06T08:29:19;99644.31;;;31.27;31.00
78932;BME280;68331;53.362;55.932;2023-08-06T08:31:46;99640.69;;;31.35;30.61
78932;BME280;68331;53.362;55.932;2023-08-06T08:34:15;99637.59;;;30.85;30.70
78932;BME280;68331;53.362;55.932;2023-08-06T08:36:41;99633.38;;;30.59;31.28
78932;BME280;68331;53.362;55.932;2023-08-06T08:39:07;99623.19;;;30.39;31.99
78932;BME280;68331;53.362;55.932;2023-08-06T08:41:33;99639.69;;;30.37;31.79
78932;BME280;68331;53.362;55.932;2023-08-06T08:44:01;99627.09;;;30.59;31.44
78932;BME280;68331;53.362;55.932;2023-08-06T08:46:29;99617.88;;;30.83;31.19
78932;BME280;68331;53.362;55.932;2023-08-06T08:48:56;99619.88;;;30.89;31.75
78932;BME280;68331;53.362;55.932;2023-08-06T08:51:27;99627.13;;;31.26;31.12
78932;BME280;68331;53.362;55.932;2023-08-06T08:53:53;99627.47;;;31.83;29.99
78932;BME280;68331;53.362;55.932;2023-08-06T08:56:24;99621.69;;;32.07;30.28
78932;BME280;68331;53.362;55.932;2023-08-06T08:58:50;99624.28;;;32.15;30.40
78932;BME280;68331;53.362;55.932;2023-08-06T09:01:24;99613.16;;;31.81;30.79
78932;BME280;68331;53.362;55.932;2023-08-06T09:03:51;99616.91;;;31.43;31.04
78932;BME280;68331;53.362;55.932;2023-08-06T09:06:18;99607.59;;;31.53;31.15
78932;BME280;68331;53.362;55.932;2023-08-06T09:09:13;99627.94;;;32.01;29.92
78932;BME280;68331;53.362;55.932;2023-08-06T09:11:44;99604.59;;;31.99;29.76
78932;BME280;68331;53.362;55.932;2023-08-06T09:14:11;99611.41;;;31.73;29.78
78932;BME280;68331;53.362;55.932;2023-08-06T09:16:38;99609.19;;;31.47;30.52
78932;BME280;68331;53.362;55.932;2023-08-06T09:19:10;99605.31;;;31.26;30.21
78932;BME280;68331;53.362;55.932;2023-08-06T09:21:41;99618.84;;;31.20;30.33
78932;BME280;68331;53.362;55.932;2023-08-06T09:24:11;99625.41;;;31.11;30.34
78932;BME280;68331;53.362;55.932;2023-08-06T09:26:39;99615.47;;;31.03;30.87
78932;BME280;68331;53.362;55.932;2023-08-06T09:29:06;99609.81;;;31.19;30.66
78932;BME280;68331;53.362;55.932;2023-08-06T09:31:55;99597.25;;;31.48;30.54
78932;BME280;68331;53.362;55.932;2023-08-06T09:34:22;99614.41;;;31.78;31.21
78932;BME280;68331;53.362;55.932;2023-08-06T09:36:49;99613.63;;;31.84;30.60
78932;BME280;68331;53.362;55.932;2023-08-06T09:39:27;99613.28;;;31.72;29.38
78932;BME280;68331;53.362;55.932;2023-08-06T09:41:57;99610.41;;;31.59;28.43
78932;BME280;68331;53.362;55.932;2023-08-06T09:44:26;99604.28;;;31.57;28.20
78932;BME280;68331;53.362;55.932;2023-08-06T09:49:22;99602.69;;;31.48;29.67
78932;BME280;68331;53.362;55.932;2023-08-06T09:51:48;99597.75;;;31.37;30.07
78932;BME280;68331;53.362;55.932;2023-08-06T09:54:17;99606.81;;;31.59;30.42
78932;BME280;68331;53.362;55.932;2023-08-06T09:56:46;99605.09;;;31.72;30.28
78932;BME280;68331;53.362;55.932;2023-08-06T09:59:14;99596.56;;;31.61;31.12
78932;BME280;68331;53.362;55.932;2023-08-06T10:01:41;99587.56;;;31.31;31.34
78932;BME280;68331;53.362;55.932;2023-08-06T10:04:07;99592.16;;;31.00;31.90
78932;BME280;68331;53.362;55.932;2023-08-06T10:06:35;99599.22;;;30.57;32.05
78932;BME280;68331;53.362;55.932;2023-08-06T10:09:04;99595.50;;;30.35;32.20
78932;BME280;68331;53.362;55.932;2023-08-06T10:11:30;99595.25;;;30.22;32.98
78932;BME280;68331;53.362;55.932;2023-08-06T10:14:19;99596.69;;;30.32;32.97
78932;BME280;68331;53.362;55.932;2023-08-06T10:16:47;99586.25;;;30.59;33.16
78932;BME280;68331;53.362;55.932;2023-08-06T10:19:13;99582.84;;;30.95;32.68
78932;BME280;68331;53.362;55.932;2023-08-06T10:21:41;99580.31;;;31.23;32.02
78932;BME280;68331;53.362;55.932;2023-08-06T10:24:08;99591.22;;;31.08;32.29
78932;BME280;68331;53.362;55.932;2023-08-06T10:26:36;99582.75;;;31.03;31.84
78932;BME280;68331;53.362;55.932;2023-08-06T10:29:37;99574.34;;;30.75;32.62
78932;BME280;68331;53.362;55.932;2023-08-06T10:32:04;99577.41;;;30.80;32.36
78932;BME280;68331;53.362;55.932;2023-08-06T10:34:54;99573.63;;;30.81;32.52
78932;BME280;68331;53.362;55.932;2023-08-06T10:37:30;99574.50;;;31.11;31.51
78932;BME280;68331;53.362;55.932;2023-08-06T10:40:01;99572.25;;;31.15;30.59
78932;BME280;68331;53.362;55.932;2023-08-06T10:42:31;99580.31;;;30.93;31.07
78932;BME280;68331;53.362;55.932;2023-08-06T10:45:14;99576.03;;;30.61;32.03
78932;BME280;68331;53.362;55.932;2023-08-06T10:47:42;99575.44;;;30.51;32.08
78932;BME280;68331;53.362;55.932;2023-08-06T10:50:12;99571.75;;;30.44;32.06
78932;BME280;68331;53.362;55.932;2023-08-06T10:52:39;99566.75;;;30.70;31.82
78932;BME280;68331;53.362;55.932;2023-08-06T10:55:06;99574.75;;;31.01;32.28
78932;BME280;68331;53.362;55.932;2023-08-06T10:57:32;99574.00;;;31.22;31.75
78932;BME280;68331;53.362;55.932;2023-08-06T10:59:58;99553.16;;;31.15;31.67
78932;BME280;68331;53.362;55.932;2023-08-06T11:02:24;99559.38;;;31.09;31.31
78932;BME280;68331;53.362;55.932;2023-08-06T11:04:50;99555.13;;;31.21;31.39
78932;BME280;68331;53.362;55.932;2023-08-06T11:07:16;99564.34;;;31.35;30.50
78932;BME280;68331;53.362;55.932;2023-08-06T11:09:42;99552.50;;;31.27;30.98
78932;BME280;68331;53.362;55.932;2023-08-06T11:12:10;99561.69;;;31.26;31.18
78932;BME280;68331;53.362;55.932;2023-08-06T11:14:36;99558.50;;;31.23;31.38
78932;BME280;68331;53.362;55.932;2023-08-06T11:17:02;99554.94;;;30.78;32.20
78932;BME280;68331;53.362;55.932;2023-08-06T11:19:28;99561.09;;;30.34;32.57
78932;BME280;68331;53.362;55.932;2023-08-06T11:21:54;99558.50;;;30.41;32.85
78932;BME280;68331;53.362;55.932;2023-08-06T11:24:20;99553.72;;;30.80;32.01
78932;BME280;68331;53.362;55.932;2023-08-06T11:26:46;99558.03;;;31.19;31.64
78932;BME280;68331;53.362;55.932;2023-08-06T11:29:15;99546.31;;;31.34;30.86
78932;BME280;68331;53.362;55.932;2023-08-06T11:31:41;99545.72;;;31.38;31.05
78932;BME280;68331;53.362;55.932;2023-08-06T11:34:07;99540.91;;;31.55;30.38
78932;BME280;68331;53.362;55.932;2023-08-06T11:36:36;99533.06;;;31.67;30.65
78932;BME280;68331;53.362;55.932;2023-08-06T11:39:03;99543.59;;;31.70;30.95
78932;BME280;68331;53.362;55.932;2023-08-06T11:41:32;99551.06;;;31.32;31.37
78932;BME280;68331;53.362;55.932;2023-08-06T11:44:01;99549.94;;;31.26;31.16
78932;BME280;68331;53.362;55.932;2023-08-06T11:46:28;99542.03;;;31.46;31.16
78932;BME280;68331;53.362;55.932;2023-08-06T11:48:55;99535.66;;;31.54;31.00
78932;BME280;68331;53.362;55.932;2023-08-06T11:51:25;99527.47;;;31.54;30.57
78932;BME280;68331;53.362;55.932;2023-08-06T11:53:57;99518.06;;;31.56;30.18
78932;BME280;68331;53.362;55.932;2023-08-06T11:56:27;99537.81;;;31.28;29.27
78932;BME280;68331;53.362;55.932;2023-08-06T11:58:56;99523.47;;;31.05;29.79
78932;BME280;68331;53.362;55.932;2023-08-06T12:01:23;99526.81;;;30.63;30.22
78932;BME280;68331;53.362;55.932;2023-08-06T12:03:48;99521.09;;;30.72;30.74
78932;BME280;68331;53.362;55.932;2023-08-06T12:06:14;99521.59;;;31.06;30.29
78932;BME280;68331;53.362;55.932;2023-08-06T12:08:40;99524.84;;;31.31;30.13
78932;BME280;68331;53.362;55.932;2023-08-06T12:11:08;99526.38;;;30.89;30.56
78932;BME280;68331;53.362;55.932;2023-08-06T12:13:34;99534.59;;;30.51;31.32
78932;BME280;68331;53.362;55.932;2023-08-06T12:16:00;99531.47;;;30.39;31.63
78932;BME280;68331;53.362;55.932;2023-08-06T12:18:26;99528.91;;;30.38;32.03
78932;BME280;68331;53.362;55.932;2023-08-06T12:20:52;99524.81;;;30.42;31.81
78932;BME280;68331;53.362;55.932;2023-08-06T12:23:18;99528.44;;;30.19;32.58
78932;BME280;68331;53.362;55.932;2023-08-06T12:25:44;99534.38;;;29.92;32.85
78932;BME280;68331;53.362;55.932;2023-08-06T12:28:10;99540.19;;;29.57;33.17
78932;BME280;68331;53.362;55.932;2023-08-06T12:30:37;99525.25;;;29.53;32.71
78932;BME280;68331;53.362;55.932;2023-08-06T12:33:07;99522.22;;;29.48;32.98
78932;BME280;68331;53.362;55.932;2023-08-06T12:35:33;99530.72;;;29.45;32.97
78932;BME280;68331;53.362;55.932;2023-08-06T12:37:59;99521.44;;;29.71;33.15
78932;BME280;68331;53.362;55.932;2023-08-06T12:40:25;99518.84;;;30.00;31.76
78932;BME280;68331;53.362;55.932;2023-08-06T12:42:51;99518.53;;;30.18;31.28
78932;BME280;68331;53.362;55.932;2023-08-06T12:45:17;99509.38;;;30.34;31.53
78932;BME280;68331;53.362;55.932;2023-08-06T12:47:46;99509.34;;;29.96;31.72
78932;BME280;68331;53.362;55.932;2023-08-06T12:50:12;99512.16;;;29.65;32.12
78932;BME280;68331;53.362;55.932;2023-08-06T12:52:38;99507.53;;;29.65;31.79
78932;BME280;68331;53.362;55.932;2023-08-06T12:55:04;99509.66;;;29.47;32.28
78932;BME280;68331;53.362;55.932;2023-08-06T12:57:30;99510.44;;;29.64;32.28